Time;durP1;ratioP1;P1;durP2;ratioP2;P2;SDS_P1;SDS_P2;PMS_P1;PMS_P2;Temp;Humidity;BMP_temperature;BMP_pressure;BME280_temperature;BME280_humidity;BME280_pressure;Samples;Min_cycle;Max_cycle;Signal;HPM_P1;HPM_P2
2022/07/12 00:01:48;;;;;;;;;;;26.70;45.40;;;;;;5078980;28;973;-44
2022/07/12 00:04:16;;;;;;;;;;;26.70;45.40;;;;;;5077616;28;1976;-44
2022/07/12 00:06:43;;;;;;;;;;;26.70;45.40;;;;;;5078450;28;940;-44
2022/07/12 00:09:10;;;;;;;;;;;26.70;45.10;;;;;;5078057;28;952;-43
2022/07/12 00:11:37;;;;;;;;;;;26.70;45.20;;;;;;5078441;28;932;-45
2022/07/12 00:14:03;;;;;;;;;;;26.70;45.20;;;;;;5078455;28;1012;-44
2022/07/12 00:16:30;;;;;;;;;;;26.70;45.20;;;;;;5078346;28;928;-44
2022/07/12 00:18:57;;;;;;;;;;;26.70;45.10;;;;;;5078163;28;1020;-44
2022/07/12 00:21:25;;;;;;;;;;;26.70;45.20;;;;;;5077636;28;944;-44
2022/07/12 00:23:52;;;;;;;;;;;26.70;45.20;;;;;;5077719;28;1909;-44
2022/07/12 00:26:19;;;;;;;;;;;26.70;45.10;;;;;;5077856;28;977;-44
2022/07/12 00:28:47;;;;;;;;;;;26.70;45.00;;;;;;5077973;28;944;-44
2022/07/12 00:31:14;;;;;;;;;;;26.70;45.00;;;;;;5078222;28;909;-44
2022/07/12 00:33:41;;;;;;;;;;;26.70;45.00;;;;;;5078683;28;957;-43
2022/07/12 00:36:08;;;;;;;;;;;26.70;45.00;;;;;;5078304;28;936;-47
2022/07/12 00:38:36;;;;;;;;;;;26.70;45.00;;;;;;5077744;28;1024;-46
2022/07/12 00:41:03;;;;;;;;;;;26.70;44.90;;;;;;5078218;28;924;-46
2022/07/12 00:43:29;;;;;;;;;;;26.70;45.00;;;;;;5078183;28;1973;-46
2022/07/12 00:45:56;;;;;;;;;;;26.60;44.90;;;;;;5077799;28;1024;-48
2022/07/12 00:48:23;;;;;;;;;;;26.60;44.90;;;;;;5078146;28;984;-47
2022/07/12 00:50:50;;;;;;;;;;;26.60;44.80;;;;;;5076486;28;983;-46
2022/07/12 00:53:23;;;;;;;;;;;26.60;44.80;;;;;;5077722;28;904;-46
2022/07/12 00:55:54;;;;;;;;;;;26.60;44.90;;;;;;5075969;28;1019;-43
2022/07/12 00:58:22;;;;;;;;;;;26.60;44.90;;;;;;5077519;28;889;-44
2022/07/12 01:00:49;;;;;;;;;;;26.60;44.80;;;;;;5077360;28;939;-44
2022/07/12 01:03:16;;;;;;;;;;;26.60;44.70;;;;;;5077596;28;1026;-45
2022/07/12 01:05:44;;;;;;;;;;;26.60;44.70;;;;;;5077972;28;1964;-44
2022/07/12 01:08:12;;;;;;;;;;;26.50;44.60;;;;;;5078177;28;997;-44
2022/07/12 01:10:39;;;;;;;;;;;26.60;44.60;;;;;;5077905;28;1068;-44
2022/07/12 01:13:07;;;;;;;;;;;26.60;44.50;;;;;;5077998;28;1017;-44
2022/07/12 01:15:34;;;;;;;;;;;26.50;44.50;;;;;;5077598;28;952;-45
2022/07/12 01:18:01;;;;;;;;;;;26.50;44.60;;;;;;5078155;28;1004;-45
2022/07/12 01:20:28;;;;;;;;;;;26.50;44.40;;;;;;5078052;28;1008;-45
2022/07/12 01:22:58;;;;;;;;;;;26.50;44.40;;;;;;5077554;28;960;-42
2022/07/12 01:25:25;;;;;;;;;;;26.50;44.40;;;;;;5076243;28;1926;-43
2022/07/12 01:27:51;;;;;;;;;;;26.50;44.40;;;;;;5076664;28;1015;-41
2022/07/12 01:30:18;;;;;;;;;;;26.50;45.50;;;;;;5076930;28;944;-42
2022/07/12 01:32:45;;;;;;;;;;;26.50;44.20;;;;;;5077658;28;991;-46
2022/07/12 01:35:13;;;;;;;;;;;26.50;44.30;;;;;;5076958;28;977;-46
2022/07/12 01:37:41;;;;;;;;;;;26.50;44.40;;;;;;5076928;28;963;-47
2022/07/12 01:40:10;;;;;;;;;;;26.40;44.20;;;;;;5079078;28;1007;-47
2022/07/12 01:42:37;;;;;;;;;;;26.50;44.20;;;;;;5081725;28;937;-48
2022/07/12 01:45:04;;;;;;;;;;;26.50;44.20;;;;;;5080637;28;1980;-47
2022/07/12 01:47:31;;;;;;;;;;;26.50;44.40;;;;;;5082080;28;933;-49
2022/07/12 01:49:58;;;;;;;;;;;26.50;44.30;;;;;;5082235;28;936;-48
2022/07/12 01:52:25;;;;;;;;;;;26.50;44.30;;;;;;5081677;28;1077;-48
2022/07/12 01:54:52;;;;;;;;;;;26.50;44.30;;;;;;5081685;28;1022;-48
2022/07/12 01:57:20;;;;;;;;;;;26.50;44.30;;;;;;5081685;28;1011;-48
2022/07/12 01:59:47;;;;;;;;;;;26.50;44.40;;;;;;5081501;28;948;-49
2022/07/12 02:02:14;;;;;;;;;;;26.40;44.30;;;;;;5080914;28;1048;-49
2022/07/12 02:04:40;;;;;;;;;;;26.50;44.30;;;;;;5081504;28;1976;-49
2022/07/12 02:07:07;;;;;;;;;;;26.40;44.20;;;;;;5081277;28;964;-49
2022/07/12 02:09:34;;;;;;;;;;;26.40;44.30;;;;;;5081299;28;994;-48
2022/07/12 02:12:00;;;;;;;;;;;26.40;44.30;;;;;;5080013;28;944;-44
2022/07/12 02:14:29;;;;;;;;;;;26.40;44.30;;;;;;5080802;28;937;-43
2022/07/12 02:16:56;;;;;;;;;;;26.50;44.40;;;;;;5080299;28;973;-44
2022/07/12 02:19:22;;;;;;;;;;;26.40;44.30;;;;;;5081623;28;952;-44
2022/07/12 02:21:49;;;;;;;;;;;26.40;44.30;;;;;;5080893;28;1023;-44
2022/07/12 02:24:16;;;;;;;;;;;26.40;44.30;;;;;;5081087;28;1959;-43
2022/07/12 02:26:43;;;;;;;;;;;26.40;44.40;;;;;;5080486;28;1005;-44
2022/07/12 02:29:10;;;;;;;;;;;26.40;44.40;;;;;;5081044;28;998;-44
2022/07/12 02:31:39;;;;;;;;;;;26.40;44.30;;;;;;5080578;28;952;-46
2022/07/12 02:34:06;;;;;;;;;;;26.30;44.30;;;;;;5081022;28;1035;-44
2022/07/12 02:36:33;;;;;;;;;;;26.30;44.30;;;;;;5080329;28;913;-45
2022/07/12 02:39:02;;;;;;;;;;;26.30;44.30;;;;;;5080186;28;1060;-43
2022/07/12 02:41:29;;;;;;;;;;;26.30;45.40;;;;;;5080136;28;1010;-44
2022/07/12 02:43:56;;;;;;;;;;;26.30;44.20;;;;;;5080362;28;1902;-45
2022/07/12 02:46:23;;;;;;;;;;;26.30;44.10;;;;;;5079673;28;936;-44
2022/07/12 02:48:52;;;;;;;;;;;26.30;44.10;;;;;;5079327;28;993;-43
2022/07/12 02:51:19;;;;;;;;;;;26.30;44.00;;;;;;5079466;28;957;-51
2022/07/12 02:53:45;;;;;;;;;;;26.30;44.10;;;;;;5079304;28;975;-50
2022/07/12 02:56:12;;;;;;;;;;;26.20;43.90;;;;;;5079518;28;1031;-50
2022/07/12 02:58:39;;;;;;;;;;;26.20;43.80;;;;;;5079974;28;1055;-50
2022/07/12 03:01:06;;;;;;;;;;;26.30;43.90;;;;;;5079764;28;955;-50
2022/07/12 03:03:33;;;;;;;;;;;26.20;43.80;;;;;;5079703;28;1044;-53
2022/07/12 03:06:01;;;;;;;;;;;26.20;43.70;;;;;;5079734;28;1979;-50
2022/07/12 03:08:27;;;;;;;;;;;26.20;43.70;;;;;;5079782;28;929;-50
2022/07/12 03:10:54;;;;;;;;;;;26.20;43.60;;;;;;5079329;28;996;-50
2022/07/12 03:13:21;;;;;;;;;;;26.20;43.60;;;;;;5078730;28;1011;-50
2022/07/12 03:15:47;;;;;;;;;;;26.20;43.60;;;;;;5079057;28;1011;-50
2022/07/12 03:18:14;;;;;;;;;;;26.20;43.60;;;;;;5080054;28;956;-50
2022/07/12 03:20:41;;;;;;;;;;;26.20;43.60;;;;;;5079531;28;929;-49
2022/07/12 03:23:10;;;;;;;;;;;26.10;43.70;;;;;;5079304;28;1006;-50
2022/07/12 03:25:37;;;;;;;;;;;26.20;43.70;;;;;;5079423;28;1902;-49
2022/07/12 03:28:03;;;;;;;;;;;26.10;43.70;;;;;;5078854;28;1027;-50
2022/07/12 03:30:30;;;;;;;;;;;26.10;43.60;;;;;;5077976;28;996;-50
2022/07/12 03:32:57;;;;;;;;;;;26.10;43.70;;;;;;5078522;28;1027;-49
2022/07/12 03:35:24;;;;;;;;;;;26.10;43.70;;;;;;5078058;28;1836;-49
2022/07/12 03:37:51;;;;;;;;;;;26.10;43.70;;;;;;5078570;28;949;-50
2022/07/12 03:40:20;;;;;;;;;;;26.10;43.70;;;;;;5078298;28;989;-50
2022/07/12 03:42:47;;;;;;;;;;;26.10;43.70;;;;;;5078265;28;892;-50
2022/07/12 03:45:14;;;;;;;;;;;26.10;43.70;;;;;;5077904;28;1910;-50
2022/07/12 03:47:41;;;;;;;;;;;26.10;43.70;;;;;;5078564;28;978;-49
2022/07/12 03:50:10;;;;;;;;;;;26.10;43.70;;;;;;5077292;28;1012;-49
2022/07/12 03:52:37;;;;;;;;;;;26.10;43.70;;;;;;5076724;28;1006;-49
2022/07/12 03:55:05;;;;;;;;;;;26.10;43.70;;;;;;5076833;28;980;-49
2022/07/12 03:57:33;;;;;;;;;;;26.10;43.80;;;;;;5076946;28;1086;-49
2022/07/12 03:59:59;;;;;;;;;;;26.10;43.90;;;;;;5077987;28;1020;-50
2022/07/12 04:02:26;;;;;;;;;;;26.10;43.80;;;;;;5076061;28;1278;-49
2022/07/12 04:04:53;;;;;;;;;;;26.10;43.70;;;;;;5076263;28;1902;-50
2022/07/12 04:07:21;;;;;;;;;;;26.10;43.80;;;;;;5076327;28;1016;-49
2022/07/12 04:09:48;;;;;;;;;;;26.10;43.80;;;;;;5076862;28;959;-50
2022/07/12 04:12:15;;;;;;;;;;;26.10;43.80;;;;;;5076790;28;984;-49
2022/07/12 04:14:43;;;;;;;;;;;26.10;44.00;;;;;;5075975;28;993;-49
2022/07/12 04:17:10;;;;;;;;;;;26.00;44.00;;;;;;5075471;28;1020;-51
2022/07/12 04:19:37;;;;;;;;;;;26.00;43.90;;;;;;5075503;28;1850;-52
2022/07/12 04:22:04;;;;;;;;;;;26.10;44.00;;;;;;5075124;28;956;-50
2022/07/12 04:24:31;;;;;;;;;;;26.10;44.00;;;;;;5075075;28;2005;-52
2022/07/12 04:26:58;;;;;;;;;;;26.10;44.00;;;;;;5074246;28;1006;-50
2022/07/12 04:29:24;;;;;;;;;;;26.00;44.00;;;;;;5075714;28;972;-49
2022/07/12 04:31:52;;;;;;;;;;;26.10;44.00;;;;;;5075018;28;947;-50
2022/07/12 04:34:19;;;;;;;;;;;26.10;44.00;;;;;;5077013;28;1009;-50
2022/07/12 04:36:47;;;;;;;;;;;26.10;44.10;;;;;;5076896;28;966;-50
2022/07/12 04:39:14;;;;;;;;;;;26.00;44.00;;;;;;5075650;28;1011;-49
2022/07/12 04:41:41;;;;;;;;;;;26.00;44.10;;;;;;5076186;28;929;-49
2022/07/12 04:44:08;;;;;;;;;;;26.00;44.20;;;;;;5076121;28;1450;-44
2022/07/12 04:46:34;;;;;;;;;;;26.00;44.20;;;;;;5076079;28;1965;-44
2022/07/12 04:49:03;;;;;;;;;;;26.00;44.10;;;;;;5074871;28;997;-44
2022/07/12 04:51:29;;;;;;;;;;;26.00;44.20;;;;;;5077060;28;932;-43
2022/07/12 04:53:56;;;;;;;;;;;25.90;44.30;;;;;;5076744;28;892;-43
2022/07/12 04:56:23;;;;;;;;;;;25.90;44.40;;;;;;5075988;28;948;-44
2022/07/12 04:58:50;;;;;;;;;;;25.90;44.50;;;;;;5076639;28;892;-44
2022/07/12 05:01:17;;;;;;;;;;;26.00;44.50;;;;;;5075372;28;937;-43
2022/07/12 05:03:43;;;;;;;;;;;26.00;44.50;;;;;;5075503;28;1122;-43
2022/07/12 05:06:12;;;;;;;;;;;25.90;44.60;;;;;;5076585;28;1992;-44
2022/07/12 05:08:38;;;;;;;;;;;25.90;44.70;;;;;;5076046;28;944;-44
2022/07/12 05:11:05;;;;;;;;;;;25.90;44.70;;;;;;5076050;28;928;-42
2022/07/12 05:13:32;;;;;;;;;;;25.90;44.80;;;;;;5073728;28;940;-45
2022/07/12 05:15:59;;;;;;;;;;;25.90;45.00;;;;;;5079548;28;1008;-44
2022/07/12 05:18:26;;;;;;;;;;;25.90;45.00;;;;;;5080013;28;949;-44
2022/07/12 05:20:52;;;;;;;;;;;25.90;45.10;;;;;;5080250;28;948;-43
2022/07/12 05:23:20;;;;;;;;;;;26.00;44.90;;;;;;5079596;28;995;-44
2022/07/12 05:25:47;;;;;;;;;;;26.00;45.00;;;;;;5067165;28;1987;-43
2022/07/12 05:28:14;;;;;;;;;;;25.90;45.00;;;;;;5067530;28;997;-39
2022/07/12 05:30:41;;;;;;;;;;;26.00;47.30;;;;;;5080397;28;952;-42
2022/07/12 05:33:08;;;;;;;;;;;26.00;45.60;;;;;;5081126;28;985;-42
2022/07/12 05:35:35;;;;;;;;;;;26.10;45.20;;;;;;5078711;28;1015;-46
2022/07/12 05:38:02;;;;;;;;;;;26.10;45.10;;;;;;5078500;28;981;-46
2022/07/12 05:40:30;;;;;;;;;;;26.10;45.00;;;;;;5079456;28;1007;-44
2022/07/12 05:42:58;;;;;;;;;;;26.10;45.10;;;;;;5075757;28;1011;-45
2022/07/12 05:45:25;;;;;;;;;;;26.10;45.20;;;;;;5079352;28;1980;-45
2022/07/12 05:47:52;;;;;;;;;;;26.20;45.20;;;;;;5078470;28;1062;-45
2022/07/12 05:50:19;;;;;;;;;;;26.30;45.00;;;;;;5078556;28;789;-46
2022/07/12 05:55:31;;;;;;;;;;;26.30;45.20;;;;;;5078223;28;777;-42
2022/07/12 05:57:58;;;;;;;;;;;26.40;45.00;;;;;;5079660;28;982;-42
2022/07/12 06:00:25;;;;;;;;;;;26.20;45.30;;;;;;5078546;28;940;-42
2022/07/12 06:02:52;;;;;;;;;;;26.10;45.40;;;;;;5078408;28;1179;-41
2022/07/12 06:05:19;;;;;;;;;;;26.10;46.50;;;;;;5079434;28;1910;-41
2022/07/12 06:07:45;;;;;;;;;;;26.20;45.70;;;;;;5078917;28;936;-41
2022/07/12 06:10:12;;;;;;;;;;;26.30;45.50;;;;;;5078583;28;941;-41
2022/07/12 06:12:40;;;;;;;;;;;26.20;45.30;;;;;;5079217;28;977;-41
2022/07/12 06:15:07;;;;;;;;;;;26.10;45.60;;;;;;5079707;28;948;-40
2022/07/12 06:17:34;;;;;;;;;;;26.00;46.00;;;;;;5077840;28;1007;-41
2022/07/12 06:20:01;;;;;;;;;;;25.90;46.20;;;;;;5076877;28;1027;-41
2022/07/12 06:22:28;;;;;;;;;;;25.80;46.30;;;;;;5077019;28;999;-42
2022/07/12 06:24:54;;;;;;;;;;;25.90;46.40;;;;;;5077624;28;997;-41
2022/07/12 06:27:21;;;;;;;;;;;25.80;46.30;;;;;;5076843;28;1977;-41
2022/07/12 06:29:49;;;;;;;;;;;25.90;46.20;;;;;;5077281;28;940;-41
2022/07/12 06:32:16;;;;;;;;;;;25.90;46.50;;;;;;5076637;28;1039;-41
2022/07/12 06:34:43;;;;;;;;;;;25.80;46.60;;;;;;5077729;28;1030;-41
2022/07/12 06:37:09;;;;;;;;;;;25.80;46.60;;;;;;5077812;28;956;-41
2022/07/12 06:39:36;;;;;;;;;;;25.80;46.60;;;;;;5078800;28;986;-44
2022/07/12 06:42:05;;;;;;;;;;;25.90;46.40;;;;;;5078785;28;1000;-46
2022/07/12 06:44:31;;;;;;;;;;;26.10;46.30;;;;;;5078960;28;997;-44
2022/07/12 06:47:00;;;;;;;;;;;25.80;46.30;;;;;;5078477;28;1963;-43
2022/07/12 06:49:27;;;;;;;;;;;25.90;46.50;;;;;;5078563;28;965;-44
2022/07/12 06:51:53;;;;;;;;;;;25.90;46.60;;;;;;5078714;28;1775;-43
2022/07/12 06:54:20;;;;;;;;;;;25.80;46.60;;;;;;5078283;28;928;-44
2022/07/12 06:56:47;;;;;;;;;;;25.80;46.60;;;;;;5079004;28;1579;-47
2022/07/12 06:59:14;;;;;;;;;;;25.90;46.50;;;;;;5079253;28;1050;-45
2022/07/12 07:01:41;;;;;;;;;;;25.90;46.40;;;;;;5078476;28;1024;-44
2022/07/12 07:04:09;;;;;;;;;;;25.90;46.60;;;;;;5076459;28;1194;-45
2022/07/12 07:06:36;;;;;;;;;;;25.80;46.70;;;;;;5077065;28;1917;-45
2022/07/12 07:09:06;;;;;;;;;;;25.80;46.70;;;;;;5076536;28;1031;-45
2022/07/12 07:11:33;;;;;;;;;;;25.90;46.70;;;;;;5076418;28;956;-44
2022/07/12 07:14:00;;;;;;;;;;;25.90;46.70;;;;;;5076325;28;1020;-45
2022/07/12 07:16:27;;;;;;;;;;;25.90;46.60;;;;;;5076056;28;920;-39
2022/07/12 07:18:53;;;;;;;;;;;26.00;46.40;;;;;;5077055;28;992;-40
2022/07/12 07:21:22;;;;;;;;;;;25.80;46.80;;;;;;5077231;28;985;-40
2022/07/12 07:23:48;;;;;;;;;;;25.90;46.80;;;;;;5076325;28;948;-44
2022/07/12 07:26:15;;;;;;;;;;;25.90;46.70;;;;;;5076472;28;1906;-44
2022/07/12 07:31:22;;;;;;;;;;;25.80;46.90;;;;;;5076895;28;826;-41
2022/07/12 07:33:49;;;;;;;;;;;25.80;46.80;;;;;;5077787;28;939;-40
2022/07/12 07:36:16;;;;;;;;;;;25.90;46.80;;;;;;5077136;28;984;-41
2022/07/12 07:38:44;;;;;;;;;;;26.00;46.80;;;;;;5076640;28;996;-40
2022/07/12 07:41:11;;;;;;;;;;;25.90;46.80;;;;;;5076503;28;945;-40
2022/07/12 07:43:37;;;;;;;;;;;25.80;46.90;;;;;;5076939;28;1020;-40
2022/07/12 07:46:04;;;;;;;;;;;25.80;46.90;;;;;;5076208;28;1898;-40
2022/07/12 07:48:31;;;;;;;;;;;25.80;46.80;;;;;;5076983;28;1003;-44
2022/07/12 07:50:58;;;;;;;;;;;25.90;46.80;;;;;;5075510;28;952;-44
2022/07/12 07:53:25;;;;;;;;;;;25.90;47.00;;;;;;5076604;28;992;-44
2022/07/12 07:55:53;;;;;;;;;;;25.90;46.80;;;;;;5075488;28;890;-44
2022/07/12 07:58:21;;;;;;;;;;;25.90;46.80;;;;;;5076215;28;1167;-44
2022/07/12 08:00:48;;;;;;;;;;;26.00;46.70;;;;;;5074406;28;1011;-44
2022/07/12 08:03:14;;;;;;;;;;;26.00;46.70;;;;;;5074253;28;1012;-44
2022/07/12 08:05:41;;;;;;;;;;;26.00;46.90;;;;;;5074003;28;1983;-46
2022/07/12 08:08:08;;;;;;;;;;;26.00;47.20;;;;;;5074634;28;896;-43
2022/07/12 08:10:35;;;;;;;;;;;26.00;46.70;;;;;;5074040;28;1028;-44
2022/07/12 08:13:03;;;;;;;;;;;26.00;46.80;;;;;;5074015;28;975;-43
2022/07/12 08:15:30;;;;;;;;;;;25.90;46.90;;;;;;5074978;28;874;-44
2022/07/12 08:17:57;;;;;;;;;;;26.00;46.90;;;;;;5074160;28;987;-44
2022/07/12 08:20:24;;;;;;;;;;;26.00;46.80;;;;;;5074385;28;980;-44
2022/07/12 08:22:51;;;;;;;;;;;26.00;46.80;;;;;;5072716;28;1039;-45
2022/07/12 08:25:17;;;;;;;;;;;26.00;46.90;;;;;;5071238;28;904;-43
2022/07/12 08:27:44;;;;;;;;;;;26.00;46.80;;;;;;5073778;28;1902;-44
2022/07/12 08:30:13;;;;;;;;;;;26.10;46.80;;;;;;5074446;28;1054;-44
2022/07/12 08:32:43;;;;;;;;;;;26.10;46.60;;;;;;5073090;28;952;-43
2022/07/12 08:35:10;;;;;;;;;;;26.10;46.50;;;;;;5073240;28;951;-43
2022/07/12 08:37:37;;;;;;;;;;;26.20;46.50;;;;;;5074407;28;1011;-43
2022/07/12 08:40:05;;;;;;;;;;;26.10;46.50;;;;;;5074936;28;861;-44
2022/07/12 08:42:31;;;;;;;;;;;26.10;46.70;;;;;;5073376;28;989;-44
2022/07/12 08:44:58;;;;;;;;;;;26.10;46.70;;;;;;5073472;28;935;-44
2022/07/12 08:47:27;;;;;;;;;;;26.10;46.50;;;;;;5073581;28;1995;-44
2022/07/12 08:50:13;;;;;;;;;;;26.10;46.60;;;;;;5073520;28;932;-44
2022/07/12 08:52:40;;;;;;;;;;;26.10;46.70;;;;;;5075512;28;1003;-44
2022/07/12 08:55:16;;;;;;;;;;;26.10;46.60;;;;;;5075464;28;1000;-44
2022/07/12 08:57:43;;;;;;;;;;;26.10;46.80;;;;;;5075769;28;972;-43
2022/07/12 09:00:11;;;;;;;;;;;26.10;46.70;;;;;;5075643;28;944;-44
2022/07/12 09:02:46;;;;;;;;;;;26.20;46.40;;;;;;5075187;28;1170;-44
2022/07/12 09:05:13;;;;;;;;;;;26.20;46.50;;;;;;5075557;28;953;-44
2022/07/12 09:07:40;;;;;;;;;;;26.20;46.60;;;;;;5076223;28;1981;-44
2022/07/12 09:10:07;;;;;;;;;;;26.20;46.60;;;;;;5075707;28;948;-44
2022/07/12 09:12:34;;;;;;;;;;;26.20;46.60;;;;;;5072569;28;994;-44
2022/07/12 09:15:19;;;;;;;;;;;26.20;46.40;;;;;;5073269;28;1018;-43
2022/07/12 09:17:54;;;;;;;;;;;26.30;46.30;;;;;;5073631;28;972;-43
2022/07/12 09:20:21;;;;;;;;;;;26.30;46.40;;;;;;5073066;28;893;-44
2022/07/12 09:22:52;;;;;;;;;;;26.30;46.30;;;;;;5073183;28;992;-44
2022/07/12 09:25:18;;;;;;;;;;;26.30;46.40;;;;;;5073281;28;890;-43
2022/07/12 09:27:49;;;;;;;;;;;26.40;46.30;;;;;;5073319;28;2002;-44
2022/07/12 09:30:16;;;;;;;;;;;26.40;46.10;;;;;;5073896;28;1022;-44
2022/07/12 09:38:24;;;;;;;;;;;26.50;46.00;;;;;;5073291;28;889;-44
2022/07/12 09:40:51;;;;;;;;;;;26.50;45.90;;;;;;5073592;28;1016;-41
2022/07/12 09:43:18;;;;;;;;;;;26.50;46.00;;;;;;5072741;28;940;-41
2022/07/12 09:45:47;;;;;;;;;;;26.50;45.80;;;;;;5072704;28;1004;-40
2022/07/12 09:48:16;;;;;;;;;;;26.60;45.70;;;;;;5072011;28;1977;-41
2022/07/12 09:50:46;;;;;;;;;;;26.50;45.70;;;;;;5071650;28;944;-41
2022/07/12 09:53:14;;;;;;;;;;;26.40;45.80;;;;;;5072916;28;951;-41
2022/07/12 09:55:42;;;;;;;;;;;26.50;45.80;;;;;;5072640;28;928;-41
2022/07/12 09:58:09;;;;;;;;;;;26.50;46.90;;;;;;5070539;28;1244;-41
2022/07/12 10:00:36;;;;;;;;;;;26.60;45.70;;;;;;5070789;28;935;-41
2022/07/12 10:03:04;;;;;;;;;;;26.60;45.70;;;;;;5076327;28;1099;-42
2022/07/12 10:05:33;;;;;;;;;;;26.60;45.70;;;;;;5076234;28;972;-41
2022/07/12 10:07:59;;;;;;;;;;;26.60;45.80;;;;;;5075677;28;1905;-41
2022/07/12 10:10:28;;;;;;;;;;;26.60;45.70;;;;;;5075587;28;1021;-41
2022/07/12 10:12:55;;;;;;;;;;;26.60;45.70;;;;;;5076272;28;1013;-41
2022/07/12 10:15:23;;;;;;;;;;;26.60;45.70;;;;;;5076428;28;864;-41
2022/07/12 10:17:53;;;;;;;;;;;26.60;45.70;;;;;;5075830;28;995;-41
2022/07/12 10:20:22;;;;;;;;;;;26.60;45.70;;;;;;5076460;28;904;-41
2022/07/12 10:22:50;;;;;;;;;;;26.60;45.70;;;;;;5076054;28;952;-41
2022/07/12 10:25:30;;;;;;;;;;;26.60;45.70;;;;;;5074448;28;1031;-41
2022/07/12 10:27:58;;;;;;;;;;;26.70;45.60;;;;;;5076137;28;1993;-41
2022/07/12 10:30:25;;;;;;;;;;;26.70;45.70;;;;;;5076573;28;873;-41
2022/07/12 10:32:53;;;;;;;;;;;26.70;45.50;;;;;;5077642;28;874;-41
2022/07/12 10:35:21;;;;;;;;;;;26.70;45.60;;;;;;5077882;28;1170;-40
2022/07/12 10:38:06;;;;;;;;;;;26.70;45.60;;;;;;5078132;28;977;-41
2022/07/12 10:40:35;;;;;;;;;;;26.70;45.40;;;;;;5077497;28;874;-41
2022/07/12 10:43:16;;;;;;;;;;;26.70;45.40;;;;;;5077735;28;1009;-41
2022/07/12 10:45:43;;;;;;;;;;;26.70;45.40;;;;;;5077584;28;996;-41
2022/07/12 10:48:19;;;;;;;;;;;26.70;45.60;;;;;;5078227;28;1965;-41
2022/07/12 10:51:06;;;;;;;;;;;26.70;45.50;;;;;;5076035;28;857;-40
2022/07/12 10:53:34;;;;;;;;;;;26.70;45.60;;;;;;5071881;28;1348;-41
2022/07/12 10:56:15;;;;;;;;;;;26.60;45.70;;;;;;5074567;28;1037;-40
2022/07/12 10:58:43;;;;;;;;;;;26.70;45.70;;;;;;5076522;28;1002;-40
2022/07/12 11:01:11;;;;;;;;;;;26.70;45.70;;;;;;5074666;28;1062;-41
2022/07/12 11:03:42;;;;;;;;;;;26.70;45.70;;;;;;5074430;28;1039;-42
2022/07/12 11:06:09;;;;;;;;;;;26.70;45.40;;;;;;5074863;28;1008;-41
2022/07/12 11:08:49;;;;;;;;;;;26.70;45.60;;;;;;5075055;28;1883;-41
2022/07/12 11:11:17;;;;;;;;;;;26.70;45.60;;;;;;5074818;28;967;-41
2022/07/12 11:13:44;;;;;;;;;;;26.70;45.60;;;;;;5074662;28;1014;-41
2022/07/12 11:16:11;;;;;;;;;;;26.70;45.60;;;;;;5074349;28;1027;-41
2022/07/12 11:18:38;;;;;;;;;;;26.70;45.60;;;;;;5073689;28;986;-41
2022/07/12 11:21:05;;;;;;;;;;;26.70;45.80;;;;;;5073428;28;892;-41
2022/07/12 11:23:32;;;;;;;;;;;26.70;45.50;;;;;;5072628;28;956;-42
2022/07/12 11:26:00;;;;;;;;;;;26.70;45.50;;;;;;5073171;28;1032;-41
2022/07/12 11:28:28;;;;;;;;;;;26.60;45.70;;;;;;5072926;28;2042;-42
2022/07/12 11:31:02;;;;;;;;;;;26.70;45.60;;;;;;5073407;28;988;-41
2022/07/12 11:33:32;;;;;;;;;;;26.70;45.60;;;;;;5071672;28;1022;-41
2022/07/12 11:35:59;;;;;;;;;;;26.70;45.60;;;;;;5073718;28;822;-41
2022/07/12 11:38:26;;;;;;;;;;;26.70;45.70;;;;;;5074919;28;960;-41
2022/07/12 11:40:55;;;;;;;;;;;26.70;45.60;;;;;;5074135;28;989;-41
2022/07/12 11:43:22;;;;;;;;;;;26.70;45.50;;;;;;5073027;28;936;-41
2022/07/12 11:45:50;;;;;;;;;;;26.70;45.50;;;;;;5072746;28;1143;-42
2022/07/12 11:48:17;;;;;;;;;;;26.70;45.70;;;;;;5074382;28;1918;-41
2022/07/12 11:50:45;;;;;;;;;;;26.80;45.50;;;;;;5073517;28;965;-41
2022/07/12 11:53:15;;;;;;;;;;;26.70;45.60;;;;;;5074811;28;980;-46
2022/07/12 11:55:43;;;;;;;;;;;26.70;45.70;;;;;;5074031;28;947;-45
2022/07/12 11:58:10;;;;;;;;;;;26.80;45.50;;;;;;5074047;28;981;-46
2022/07/12 12:00:37;;;;;;;;;;;26.80;45.50;;;;;;5074007;28;928;-45
2022/07/12 12:03:05;;;;;;;;;;;26.80;45.50;;;;;;5073263;28;1036;-45
2022/07/12 12:05:32;;;;;;;;;;;26.70;45.50;;;;;;5074262;28;924;-46
2022/07/12 12:07:59;;;;;;;;;;;26.70;45.60;;;;;;5073634;28;1983;-45
2022/07/12 12:10:27;;;;;;;;;;;26.60;45.80;;;;;;5073748;28;1399;-45
2022/07/12 12:12:54;;;;;;;;;;;26.60;45.80;;;;;;5073027;28;949;-46
2022/07/12 12:15:21;;;;;;;;;;;26.60;45.90;;;;;;5073950;28;1003;-45
2022/07/12 12:17:53;;;;;;;;;;;26.60;45.90;;;;;;5074166;28;1014;-49
2022/07/12 12:20:22;;;;;;;;;;;26.50;46.00;;;;;;5073008;28;980;-46
2022/07/12 12:22:50;;;;;;;;;;;26.50;46.10;;;;;;5073539;28;915;-46
2022/07/12 12:25:17;;;;;;;;;;;26.60;47.20;;;;;;5073253;28;1016;-45
2022/07/12 12:27:47;;;;;;;;;;;26.60;45.90;;;;;;5073664;28;1992;-45
2022/07/12 12:30:15;;;;;;;;;;;26.70;45.90;;;;;;5074184;28;1008;-45
2022/07/12 12:32:45;;;;;;;;;;;26.70;45.90;;;;;;5072906;28;1031;-46
2022/07/12 12:35:12;;;;;;;;;;;26.70;46.00;;;;;;5072901;28;944;-45
2022/07/12 12:37:41;;;;;;;;;;;26.70;45.90;;;;;;5073420;28;924;-46
2022/07/12 12:40:08;;;;;;;;;;;26.80;45.60;;;;;;5070082;28;873;-46
2022/07/12 12:42:34;;;;;;;;;;;26.80;45.60;;;;;;5071758;28;959;-45
2022/07/12 12:45:01;;;;;;;;;;;26.80;45.60;;;;;;5073374;28;924;-45
2022/07/12 12:47:34;;;;;;;;;;;26.80;45.60;;;;;;5072611;28;1965;-45
2022/07/12 12:50:01;;;;;;;;;;;26.80;45.60;;;;;;5073751;28;858;-46
2022/07/12 12:52:29;;;;;;;;;;;26.90;45.60;;;;;;5073420;28;1014;-45
2022/07/12 12:54:57;;;;;;;;;;;26.80;45.50;;;;;;5073068;28;869;-46
2022/07/12 12:57:25;;;;;;;;;;;26.80;45.50;;;;;;5072089;28;1327;-46
2022/07/12 12:59:52;;;;;;;;;;;26.80;45.50;;;;;;5071293;28;853;-46
2022/07/12 13:02:20;;;;;;;;;;;26.90;45.30;;;;;;5071945;28;1000;-46
2022/07/12 13:04:47;;;;;;;;;;;26.80;45.40;;;;;;5073257;28;992;-45
2022/07/12 13:07:14;;;;;;;;;;;26.90;45.50;;;;;;5072209;28;2017;-46
2022/07/12 13:09:40;;;;;;;;;;;26.80;45.50;;;;;;5072771;28;1164;-45
2022/07/12 13:12:09;;;;;;;;;;;26.80;45.60;;;;;;5072624;28;892;-45
2022/07/12 13:14:36;;;;;;;;;;;26.70;45.60;;;;;;5074482;28;1049;-41
2022/07/12 13:17:02;;;;;;;;;;;26.70;45.70;;;;;;5071788;28;965;-40
2022/07/12 13:19:31;;;;;;;;;;;26.70;45.70;;;;;;5073122;28;994;-40
2022/07/12 13:21:58;;;;;;;;;;;26.80;45.80;;;;;;5072938;28;936;-41
2022/07/12 13:24:24;;;;;;;;;;;26.80;45.70;;;;;;5072413;28;1012;-44
2022/07/12 13:26:51;;;;;;;;;;;26.80;45.50;;;;;;5072965;28;928;-40
2022/07/12 13:29:20;;;;;;;;;;;26.90;46.70;;;;;;5072610;28;1975;-41
2022/07/12 13:31:46;;;;;;;;;;;26.90;45.70;;;;;;5072425;28;1011;-40
2022/07/12 13:34:13;;;;;;;;;;;26.90;46.70;;;;;;5072368;28;996;-40
2022/07/12 13:36:40;;;;;;;;;;;26.80;45.60;;;;;;5074782;28;952;-40
2022/07/12 13:41:51;;;;;;;;;;;26.90;45.50;;;;;;5076291;28;699;-40
2022/07/12 13:44:19;;;;;;;;;;;26.90;45.50;;;;;;5076575;28;964;-40
2022/07/12 13:46:47;;;;;;;;;;;26.90;45.50;;;;;;5076642;28;1001;-40
2022/07/12 13:49:14;;;;;;;;;;;26.90;45.50;;;;;;5074617;28;1910;-40
2022/07/12 13:51:40;;;;;;;;;;;26.90;45.50;;;;;;5071881;28;1000;-40
2022/07/12 13:54:07;;;;;;;;;;;27.00;45.40;;;;;;5076814;28;995;-40
2022/07/12 13:56:34;;;;;;;;;;;27.00;45.30;;;;;;5076641;28;1194;-40
2022/07/12 13:59:02;;;;;;;;;;;27.00;45.40;;;;;;5076225;28;973;-41
2022/07/12 14:01:30;;;;;;;;;;;27.00;45.20;;;;;;5076055;28;992;-41
2022/07/12 14:03:56;;;;;;;;;;;27.20;45.00;;;;;;5075693;28;1095;-41
2022/07/12 14:06:24;;;;;;;;;;;27.10;45.10;;;;;;5075167;28;981;-41
2022/07/12 14:08:51;;;;;;;;;;;27.10;45.10;;;;;;5075659;28;1906;-40
2022/07/12 14:11:18;;;;;;;;;;;27.20;45.10;;;;;;5076000;28;939;-40
2022/07/12 14:13:45;;;;;;;;;;;27.20;45.00;;;;;;5075728;28;1085;-40
2022/07/12 14:16:13;;;;;;;;;;;27.20;45.00;;;;;;5074326;28;1008;-41
2022/07/12 14:18:41;;;;;;;;;;;27.40;44.70;;;;;;5075548;28;908;-41
2022/07/12 14:21:08;;;;;;;;;;;27.40;44.50;;;;;;5076233;28;929;-40
2022/07/12 14:23:34;;;;;;;;;;;27.40;44.60;;;;;;5076615;28;1019;-40
2022/07/12 14:26:01;;;;;;;;;;;27.50;44.40;;;;;;5076104;28;988;-42
2022/07/12 14:28:28;;;;;;;;;;;27.60;44.20;;;;;;5075929;28;1898;-40
2022/07/12 14:30:55;;;;;;;;;;;27.70;44.00;;;;;;5074848;28;1360;-40
2022/07/12 14:33:21;;;;;;;;;;;27.70;43.90;;;;;;5074611;28;990;-40
2022/07/12 14:35:50;;;;;;;;;;;27.70;43.90;;;;;;5074770;28;968;-40
2022/07/12 14:38:17;;;;;;;;;;;27.70;44.10;;;;;;5074394;28;1052;-40
2022/07/12 14:40:44;;;;;;;;;;;27.70;44.00;;;;;;5074364;28;957;-42
2022/07/12 14:43:11;;;;;;;;;;;27.70;43.80;;;;;;5074195;28;1005;-41
2022/07/12 14:45:38;;;;;;;;;;;27.80;43.70;;;;;;5075241;28;940;-40
2022/07/12 14:48:05;;;;;;;;;;;27.70;43.90;;;;;;5075490;28;1976;-41
2022/07/12 14:50:32;;;;;;;;;;;27.80;43.70;;;;;;5074729;28;939;-40
2022/07/12 14:53:00;;;;;;;;;;;27.80;43.70;;;;;;5075345;28;989;-40